SCVD/ZAL METAR and TAF weather

Enter ICAO airport designator
Station Type Date Time Source
SCVD METAR 2020/10/29 17:00 UTC NOAA

SCVD 291700Z 21014KT CAVOK 18/08 Q1022


Station Type Date Time Source
SCVD Decoded METAR 2020/10/29 17:00 UTC NOAA

Valdivia, Chile (SCVD) 39-37S 073-05W
Oct 29, 2020 - 01:00 PM EDT / 2020.10.29 1700 UTC
Wind: from the SSW (210 degrees) at 16 MPH (14 KT):0
Visibility: greater than 7 mile(s):0
Temperature: 64 F (18 C)
Dew Point: 46 F (8 C)
Relative Humidity: 51%
Pressure (altimeter): 30.18 in. Hg (1022 hPa)
ob: SCVD 291700Z 21014KT CAVOK 18/08 Q1022
cycle: 17

Station Type Date Time Source
SCVD TAF 2020/10/29 12:00 UTC NOAA

TAF SCVD 291017Z 2912/2924 19005KT CAVOK TN07/2912Z TX19/2919Z
BECMG 2913/2915 16015KT
TEMPO 2917/2920 16015G25KT

Example: see airport list